createdAt,value
2022-10-18T00:02:04.980Z,984.88
2022-10-18T00:07:04.806Z,984.91
2022-10-18T00:12:04.802Z,984.90
2022-10-18T00:17:04.688Z,984.89
2022-10-18T00:22:04.627Z,984.91
2022-10-18T00:27:04.560Z,984.98
2022-10-18T00:32:04.513Z,984.99
2022-10-18T00:37:04.429Z,985.10
2022-10-18T00:42:04.358Z,985.02
2022-10-18T00:47:04.299Z,984.97
2022-10-18T00:52:04.229Z,984.91
2022-10-18T00:57:04.169Z,984.93
2022-10-18T01:02:04.139Z,984.94
2022-10-18T01:07:04.045Z,984.97
2022-10-18T01:12:03.988Z,984.94
2022-10-18T01:17:03.900Z,984.81
2022-10-18T01:22:03.853Z,984.80
2022-10-18T01:27:03.791Z,984.72
2022-10-18T01:32:03.714Z,984.70
2022-10-18T01:37:03.668Z,984.72
2022-10-18T01:42:03.603Z,984.75
2022-10-18T01:47:03.562Z,984.76
2022-10-18T01:52:03.571Z,984.78
2022-10-18T01:57:03.413Z,984.80
2022-10-18T02:02:03.363Z,984.71
2022-10-18T02:07:03.285Z,984.71
2022-10-18T02:12:03.244Z,984.72
2022-10-18T02:17:03.136Z,984.71
2022-10-18T02:22:03.106Z,984.66
2022-10-18T02:27:03.041Z,984.64
2022-10-18T02:32:02.954Z,984.58
2022-10-18T02:37:02.886Z,984.54
2022-10-18T02:42:02.835Z,984.61
2022-10-18T02:47:02.785Z,984.58
2022-10-18T02:52:02.707Z,984.66
2022-10-18T02:57:02.637Z,984.67
2022-10-18T03:02:02.577Z,984.65
2022-10-18T03:07:02.516Z,984.60
2022-10-18T03:12:02.456Z,984.67
2022-10-18T03:17:02.378Z,984.61
2022-10-18T03:22:02.331Z,984.69
2022-10-18T03:27:02.252Z,984.67
2022-10-18T03:32:02.171Z,984.69
2022-10-18T03:37:04.744Z,984.80
2022-10-18T03:42:02.056Z,984.72
2022-10-18T03:47:02.011Z,984.75
2022-10-18T03:52:01.940Z,984.76
2022-10-18T03:57:01.884Z,984.70
2022-10-18T04:02:01.861Z,984.70
2022-10-18T04:07:01.766Z,984.61
2022-10-18T04:12:01.686Z,984.60
2022-10-18T04:17:01.620Z,984.63
2022-10-18T04:22:01.554Z,984.61
2022-10-18T04:27:01.488Z,984.59
2022-10-18T04:32:01.461Z,984.61
2022-10-18T04:37:01.374Z,984.57
2022-10-18T04:42:01.286Z,984.58
2022-10-18T04:47:01.235Z,984.54
2022-10-18T04:52:01.204Z,984.52
2022-10-18T04:57:01.134Z,984.52
2022-10-18T05:02:01.087Z,984.55
2022-10-18T05:07:00.985Z,984.54
2022-10-18T05:12:00.915Z,984.47
2022-10-18T05:17:01.206Z,984.38
2022-10-18T05:22:00.776Z,984.35
2022-10-18T05:27:00.728Z,984.40
2022-10-18T05:32:00.688Z,984.39
2022-10-18T05:37:00.635Z,984.35
2022-10-18T05:42:00.522Z,984.30
2022-10-18T05:47:00.477Z,984.36
2022-10-18T05:52:00.406Z,984.36
2022-10-18T05:57:00.347Z,984.35
2022-10-18T06:02:00.298Z,984.36
2022-10-18T06:07:00.247Z,984.45
2022-10-18T06:12:00.143Z,984.42
2022-10-18T06:17:00.092Z,984.49
2022-10-18T06:22:00.033Z,984.49
2022-10-18T06:27:00.014Z,984.49
2022-10-18T06:31:59.884Z,984.58
2022-10-18T06:36:59.849Z,984.62
2022-10-18T06:41:59.770Z,984.54
2022-10-18T06:46:59.693Z,984.62
2022-10-18T06:51:59.648Z,984.73
2022-10-18T06:56:59.583Z,984.69
2022-10-18T07:01:59.549Z,984.77
2022-10-18T07:06:59.434Z,984.69
2022-10-18T07:11:59.424Z,984.82
2022-10-18T07:16:59.332Z,984.93
2022-10-18T07:21:59.291Z,985.02
2022-10-18T07:26:59.180Z,984.96
2022-10-18T07:31:59.145Z,985.06
2022-10-18T07:36:59.072Z,985.09
2022-10-18T07:41:59.015Z,984.96
2022-10-18T07:46:59.015Z,984.83
2022-10-18T07:51:59.236Z,984.92
2022-10-18T07:56:58.806Z,985.00
2022-10-18T08:01:58.867Z,984.96
2022-10-18T08:06:58.704Z,984.80
2022-10-18T08:11:58.649Z,984.72
2022-10-18T08:16:58.568Z,984.77
2022-10-18T08:21:58.512Z,984.78
2022-10-18T08:26:58.439Z,984.73
2022-10-18T08:31:58.386Z,984.72
2022-10-18T08:36:58.308Z,984.80
2022-10-18T08:41:58.250Z,984.79
2022-10-18T08:46:58.198Z,984.79
2022-10-18T08:51:58.111Z,984.72
2022-10-18T08:56:58.052Z,984.74
2022-10-18T09:01:57.991Z,984.76
2022-10-18T09:06:57.902Z,984.74
2022-10-18T09:12:01.063Z,984.69
2022-10-18T09:16:57.823Z,984.63
2022-10-18T09:21:57.742Z,984.64
2022-10-18T09:26:57.647Z,984.57
2022-10-18T09:31:57.606Z,984.49
2022-10-18T09:36:57.545Z,984.54
2022-10-18T09:41:57.486Z,984.61
2022-10-18T09:46:57.408Z,984.50
2022-10-18T09:51:57.337Z,984.51
2022-10-18T09:56:57.348Z,984.48
2022-10-18T10:01:57.228Z,984.51
2022-10-18T10:06:57.152Z,984.47
2022-10-18T10:11:57.109Z,984.40
2022-10-18T10:16:57.020Z,984.38
2022-10-18T10:21:56.962Z,984.32
2022-10-18T10:26:56.931Z,984.26
2022-10-18T10:31:56.833Z,984.18
2022-10-18T10:36:56.759Z,984.22
2022-10-18T10:41:56.728Z,984.16
2022-10-18T10:46:56.644Z,984.11
2022-10-18T10:52:08.257Z,984.11
2022-10-18T10:56:57.520Z,984.11
2022-10-18T11:01:56.453Z,984.05
2022-10-18T11:06:56.410Z,983.96
2022-10-18T11:11:56.330Z,983.98
2022-10-18T11:16:56.275Z,983.89
2022-10-18T11:21:56.202Z,983.81
2022-10-18T11:26:56.142Z,983.67
2022-10-18T11:31:56.073Z,983.63
2022-10-18T11:37:15.572Z,983.51
2022-10-18T11:41:56.953Z,983.38
2022-10-18T11:46:55.893Z,983.23
2022-10-18T11:52:07.937Z,983.16
2022-10-18T11:56:56.768Z,983.07
2022-10-18T12:01:55.692Z,983.08
2022-10-18T12:06:55.631Z,983.08
2022-10-18T12:11:55.983Z,983.08
2022-10-18T12:17:13.486Z,982.98
2022-10-18T12:21:56.474Z,982.93
2022-10-18T12:26:55.382Z,982.94
2022-10-18T12:31:55.316Z,982.96
2022-10-18T12:36:55.316Z,982.90
2022-10-18T12:41:55.185Z,982.91
2022-10-18T12:46:55.123Z,982.92
2022-10-18T12:51:55.048Z,982.92
2022-10-18T12:56:54.987Z,982.84
2022-10-18T13:01:55.015Z,982.79
2022-10-18T13:06:54.852Z,982.76
2022-10-18T13:11:57.530Z,982.77
2022-10-18T13:16:55.739Z,982.69
2022-10-18T13:21:54.685Z,982.73
2022-10-18T13:27:03.986Z,982.79
2022-10-18T13:31:55.536Z,982.88
2022-10-18T13:36:54.467Z,982.88
2022-10-18T13:41:57.803Z,982.91
2022-10-18T13:46:54.349Z,982.90
2022-10-18T13:51:54.292Z,982.95
2022-10-18T13:56:54.222Z,983.10
2022-10-18T14:01:54.238Z,983.16
2022-10-18T14:06:56.668Z,983.12
2022-10-18T14:11:55.038Z,983.21
2022-10-18T14:16:54.004Z,983.20
2022-10-18T14:21:53.898Z,983.22
2022-10-18T14:26:53.847Z,983.26
2022-10-18T14:31:53.788Z,983.32
2022-10-18T14:36:53.715Z,983.56
2022-10-18T14:41:53.647Z,983.59
2022-10-18T14:46:53.602Z,983.59
2022-10-18T14:51:53.532Z,983.61
2022-10-18T14:56:53.473Z,983.56
2022-10-18T15:01:53.391Z,983.55
2022-10-18T15:06:53.362Z,983.47
2022-10-18T15:11:53.266Z,983.50
2022-10-18T15:16:53.225Z,983.52
2022-10-18T15:21:56.029Z,983.45
2022-10-18T15:26:54.095Z,983.47
2022-10-18T15:31:53.018Z,983.50
2022-10-18T15:36:52.946Z,983.52
2022-10-18T15:41:52.888Z,983.52
2022-10-18T15:46:52.826Z,983.54
2022-10-18T15:51:52.750Z,983.58
2022-10-18T15:56:52.699Z,983.53
2022-10-18T16:01:52.698Z,983.47
2022-10-18T16:06:52.574Z,983.55
2022-10-18T16:11:56.753Z,983.66
2022-10-18T16:16:52.513Z,983.75
2022-10-18T16:21:52.399Z,983.78
2022-10-18T16:26:52.305Z,983.80
2022-10-18T16:31:52.266Z,983.84
2022-10-18T16:36:52.185Z,983.94
2022-10-18T16:41:52.110Z,983.93
2022-10-18T16:46:54.039Z,983.90
2022-10-18T16:51:51.990Z,983.93
2022-10-18T16:56:51.929Z,984.08
2022-10-18T17:01:51.937Z,984.06
2022-10-18T17:06:51.803Z,984.14
2022-10-18T17:11:51.753Z,984.23
2022-10-18T17:16:54.818Z,984.21
2022-10-18T17:21:52.604Z,984.19
2022-10-18T17:26:51.864Z,984.33
2022-10-18T17:31:51.485Z,984.40
2022-10-18T17:36:51.428Z,984.45
2022-10-18T17:41:51.360Z,984.41
2022-10-18T17:46:51.294Z,984.52
2022-10-18T17:51:51.230Z,984.49
2022-10-18T17:56:54.501Z,984.57
2022-10-18T18:01:51.136Z,984.63
2022-10-18T18:06:51.041Z,984.67
2022-10-18T18:11:50.980Z,984.73
2022-10-18T18:16:50.910Z,984.61
2022-10-18T18:21:50.867Z,984.61
2022-10-18T18:26:50.833Z,984.73
2022-10-18T18:31:50.712Z,984.69
2022-10-18T18:36:50.654Z,984.76
2022-10-18T18:41:50.587Z,984.77
2022-10-18T18:46:50.537Z,984.74
2022-10-18T18:51:50.465Z,984.72
2022-10-18T18:56:50.424Z,984.70
2022-10-18T19:01:50.351Z,984.65
2022-10-18T19:06:50.304Z,984.66
2022-10-18T19:11:50.198Z,984.64
2022-10-18T19:16:50.172Z,984.69
2022-10-18T19:21:50.081Z,984.65
2022-10-18T19:26:50.018Z,984.53
2022-10-18T19:31:49.961Z,984.51
2022-10-18T19:36:49.892Z,984.53
2022-10-18T19:41:49.832Z,984.65
2022-10-18T19:46:49.782Z,984.62
2022-10-18T19:51:49.696Z,984.68
2022-10-18T19:56:49.652Z,984.69
2022-10-18T20:01:49.609Z,984.71
2022-10-18T20:06:49.545Z,984.75
2022-10-18T20:11:49.448Z,984.75
2022-10-18T20:16:49.405Z,984.70
2022-10-18T20:21:49.326Z,984.71
2022-10-18T20:26:49.318Z,984.75
2022-10-18T20:31:49.199Z,984.64
2022-10-18T20:36:49.147Z,984.67
2022-10-18T20:41:49.098Z,984.66
2022-10-18T20:46:49.023Z,984.75
2022-10-18T20:51:48.950Z,984.76
2022-10-18T20:56:48.924Z,984.80
2022-10-18T21:01:48.858Z,984.81
2022-10-18T21:06:48.771Z,984.85
2022-10-18T21:11:48.713Z,984.81
2022-10-18T21:16:48.649Z,984.77
2022-10-18T21:21:48.583Z,984.82
2022-10-18T21:26:48.515Z,984.72
2022-10-18T21:31:48.454Z,984.66
2022-10-18T21:36:48.388Z,984.63
2022-10-18T21:41:48.337Z,984.66
2022-10-18T21:46:48.284Z,984.60
2022-10-18T21:51:48.223Z,984.58
2022-10-18T21:56:48.140Z,984.57
2022-10-18T22:01:48.078Z,984.45
2022-10-18T22:06:48.028Z,984.46
2022-10-18T22:11:47.974Z,984.42
2022-10-18T22:16:47.891Z,984.46
2022-10-18T22:21:47.821Z,984.52
2022-10-18T22:26:47.762Z,984.48
2022-10-18T22:31:47.714Z,984.52
2022-10-18T22:36:47.654Z,984.62
2022-10-18T22:41:47.574Z,984.55
2022-10-18T22:46:47.523Z,984.46
2022-10-18T22:51:47.446Z,984.37
2022-10-18T22:56:47.394Z,984.32
2022-10-18T23:01:47.354Z,984.36
2022-10-18T23:06:47.294Z,984.31
2022-10-18T23:11:47.275Z,984.22
2022-10-18T23:16:47.166Z,984.13
2022-10-18T23:21:47.066Z,984.12
2022-10-18T23:26:47.017Z,984.24
2022-10-18T23:31:46.952Z,984.23
2022-10-18T23:36:46.887Z,984.20
2022-10-18T23:41:46.812Z,984.21
2022-10-18T23:46:46.769Z,984.24
2022-10-18T23:51:46.724Z,984.24
2022-10-18T23:56:46.642Z,984.31
